Flight Track Log - Related Links

Times and Time Zones

All times are in EDT time to prevent confusion due to time zone crossing. See the ASQ5580 flight status page for this flight to view local times or setup timezone preferences in your user account.

Time Position Orientation Groundspeed Altitude Reporting Facility
EDT Latitude Longitude Course Direction KTS MPH feet Rate Location/Type
Thu 09:02:09 AM 33.6333 -84.4833 202° Southwest 153 176 3,400  Level Atlanta TRACON
Thu 09:03:09 AM 33.6333 -84.5500 270° West 241 277 5,500 2,350 Climbing Atlanta TRACON
Thu 09:04:09 AM 33.6333 -84.6333 270° West 266 306 8,100 2,500 Climbing Atlanta TRACON
Thu 09:04:57 AM 33.5881 -84.6897 226° Southwest 284 327 10,000 1,111 Climbing Atlanta Center
Thu 09:05:57 AM 33.5044 -84.6967 184° South 299 344 10,100 400 Climbing Atlanta Center
Thu 09:06:57 AM 33.4022 -84.6858 175° South 336 387 10,800 1,900 Climbing Atlanta Center
Thu 09:07:00 AM 33.2639 -84.3559 202° Southwest  Level FlightAware
Thu 09:07:57 AM 33.3044 -84.6478 162° South 372 428 13,900  Level Atlanta Center
Thu 09:08:57 AM 33.2064 -84.6100 162° South 372 428 15,900 1,750 Climbing Atlanta Center
Thu 09:09:57 AM 33.1022 -84.5669 161° South 383 441 17,400 1,500 Climbing Atlanta Center
Thu 09:10:57 AM 32.9958 -84.5217 160° South 395 455 18,900 1,500 Climbing Atlanta Center
Thu 09:11:57 AM 32.8811 -84.5261 182° South 413 475 20,400 1,450 Climbing Atlanta Center
Thu 09:12:57 AM 32.7642 -84.5278 181° South 420 483 21,800 800 Climbing Atlanta Center
Thu 09:13:57 AM 32.6431 -84.5372 184° South 432 497 22,000 100 Climbing Atlanta Center
Thu 09:14:57 AM 32.5136 -84.5536 186° South 447 514 22,000  Level Atlanta Center
Thu 09:15:57 AM 32.3861 -84.5775 189° South 457 526 22,000  Level Atlanta Center
Thu 09:16:57 AM 32.2753 -84.6456 207° Southwest 455 524 22,000  Level Atlanta Center
Thu 09:17:57 AM 32.1600 -84.7136 207° Southwest 455 524 22,000  Level Atlanta Center
Thu 09:20:04 AM 31.9217 -84.8581 207° Southwest 467 537 22,000  Level Jacksonville Center
Thu 09:21:03 AM 31.8183 -84.9244 209° Southwest 467 537 22,000 -252 Level Jacksonville Center
Thu 09:22:03 AM 31.7083 -85.0075 213° Southwest 467 537 21,500 -750 Descending Jacksonville Center
Thu 09:23:03 AM 31.5808 -85.0239 186° South 457 526 20,500 -1,388 Descending Jacksonville Center
Thu 09:24:04 AM 31.4553 -85.0358 185° South 446 513 18,700 -1,785 Descending Jacksonville Center
Thu 09:25:04 AM 31.3319 -85.0425 183° South 451 519 16,900 -1,815 Descending Jacksonville Center
Thu 09:26:03 AM 31.2250 -85.0644 190° South 430 495 15,100 -1,765 Descending Jacksonville Center
Thu 09:27:03 AM 31.1297 -85.1472 217° Southwest 383 441 13,400 -1,600 Descending Jacksonville Center
Thu 09:28:03 AM 31.0447 -85.2275 219° Southwest 390 449 11,900 -1,500 Descending Jacksonville Center
Thu 09:29:03 AM 30.9619 -85.2958 215° Southwest 390 449 10,400 -1,339 Descending Jacksonville Center
Thu 09:30:04 AM 30.8919 -85.3544 216° Southwest 353 406 9,200 -1,200 Descending Jacksonville Center
Thu 09:31:03 AM 30.8264 -85.4086 215° Southwest 313 360 8,000 -1,000 Descending Jacksonville Center
Thu 09:32:04 AM 30.7647 -85.4600 216° Southwest 289 333 7,200 -1,240 Descending Jacksonville Center
Thu 09:33:04 AM 30.7031 -85.5067 213° Southwest 282 325 5,500 -1,765 Descending Jacksonville Center
Thu 09:34:03 AM 30.6436 -85.5606 218° Southwest 277 319 3,700 -1,664 Descending Jacksonville Center
Thu 09:35:03 AM 30.5822 -85.6000 209° Southwest 265 305 2,200 -843 Descending Jacksonville Center
Thu 09:36:04 AM 30.5167 -85.6342 204° Southwest 260 299 2,000 -100 Descending Jacksonville Center
Thu 09:37:03 AM 30.4539 -85.6517 194° South 254 292 2,000 -50 Level Jacksonville Center
Thu 09:38:03 AM 30.3947 -85.6789 202° Southwest 244 281 1,900 -250 Descending Jacksonville Center
Thu 09:39:03 AM 30.3461 -85.7111 210° Southwest 226 260 1,500 -397 Descending Jacksonville Center
Thu 09:40:04 AM 30.3056 -85.7411 213° Southwest 199 229 1,100 -446 Descending Jacksonville Center
Thu 09:41:04 AM 30.3133 -85.7775 284° West 116 133 600 -450 Descending Jacksonville Center
Thu 09:42:04 AM 30.3381 -85.7928 332° Northwest 88 101 200 -400 Descending Jacksonville Center

Login

Don't have an account? Register now (free) for customized features, flight alerts, and more!